Ryder, North Dakota
Current Conditions -  °F | °C
As of 10:54 PM on Monday 22 Dec 2014 (Local Time) from KMOT Reporting Station
Haze Haze  
Wind Chill: 20°   Ceiling: 300
Heat Index: 30°   Visibility: 4mi
Dew Point: 28°   Wind: 14mph
Humidity: 92%   Direction: 340°NNW
Pressure: 29.84"   Gusts: NA
Location:  47.92°N, 101.68°W
Report Text: KMOT 230454Z AUTO 34012KT 4SM BR OVC003 M01/M02 A2984 RMK AO2 SLP125 I1002 T10111022
Loading
Personal Weather Stations






























Interactive Weather Map New forecast layout! Learn more

10-Day Weather Forecast

Advertisements
Track Severe Weather on mobile